Time;durP1;ratioP1;P1;durP2;ratioP2;P2;SDS_P1;SDS_P2;PMS_P1;PMS_P2;Temp;Humidity;BMP_temperature;BMP_pressure;BME280_temperature;BME280_humidity;BME280_pressure;Samples;Min_cycle;Max_cycle;Signal;HPM_P1;HPM_P2
2022/09/06 00:01:16;;;;;;;12.85;8.88;;;24.40;99.90;;;;;;5016382;28;20053;-73
2022/09/06 00:03:44;;;;;;;13.13;9.45;;;24.40;99.90;;;;;;5015706;28;20037;-73
2022/09/06 00:06:14;;;;;;;18.02;9.18;;;24.30;99.90;;;;;;5031371;28;20057;-75
2022/09/06 00:08:43;;;;;;;14.48;9.95;;;24.30;99.90;;;;;;5048948;28;20057;-74
2022/09/06 00:11:12;;;;;;;11.68;8.80;;;24.30;99.90;;;;;;5034972;28;20037;-73
2022/09/06 00:13:39;;;;;;;15.50;9.82;;;24.30;99.90;;;;;;5032128;28;20503;-80
2022/09/06 00:16:27;;;;;;;14.15;8.90;;;24.20;99.90;;;;;;5014944;28;20065;-74
2022/09/06 00:18:56;;;;;;;14.02;8.40;;;24.20;99.90;;;;;;5016029;28;20037;-73
2022/09/06 00:21:27;;;;;;;14.32;8.82;;;24.20;99.90;;;;;;5032259;28;20492;-73
2022/09/06 00:23:55;;;;;;;16.52;8.70;;;24.10;99.90;;;;;;5015578;28;20053;-73
2022/09/06 00:26:23;;;;;;;13.77;9.48;;;24.10;99.90;;;;;;5031690;28;20049;-73
2022/09/06 00:28:50;;;;;;;13.15;8.55;;;24.10;99.90;;;;;;5015071;28;20118;-77
2022/09/06 00:31:21;;;;;;;14.82;9.02;;;24.10;99.90;;;;;;5031690;28;20061;-74
2022/09/06 00:33:49;;;;;;;13.13;9.95;;;24.10;99.90;;;;;;5031719;28;20435;-73
2022/09/06 00:36:18;;;;;;;15.80;9.65;;;24.00;99.90;;;;;;5031664;28;20507;-73
2022/09/06 00:38:45;;;;;;;12.65;8.73;;;24.00;99.90;;;;;;5015476;28;20526;-75
2022/09/06 00:41:14;;;;;;;16.45;9.80;;;23.90;99.90;;;;;;5031670;28;20152;-74
2022/09/06 00:43:42;;;;;;;12.35;9.15;;;23.90;99.90;;;;;;5015234;28;20145;-75
2022/09/06 00:46:16;;;;;;;12.68;8.93;;;23.90;99.90;;;;;;5031427;28;20048;-73
2022/09/06 00:48:47;;;;;;;14.30;10.20;;;23.90;99.90;;;;;;5032290;28;20042;-74
2022/09/06 00:51:18;;;;;;;12.07;8.60;;;23.90;99.90;;;;;;5014977;28;20049;-74
2022/09/06 00:53:46;;;;;;;12.45;7.82;;;23.90;99.90;;;;;;5014927;28;20045;-73
2022/09/06 00:56:13;;;;;;;13.57;8.65;;;23.80;99.90;;;;;;5015058;28;20144;-73
2022/09/06 00:58:42;;;;;;;13.15;7.80;;;23.80;99.90;;;;;;5031272;28;20057;-73
2022/09/06 01:01:09;;;;;;;12.10;7.88;;;23.80;99.90;;;;;;5032492;28;20484;-73
2022/09/06 01:03:37;;;;;;;12.10;7.32;;;23.80;99.90;;;;;;5031334;28;20129;-73
2022/09/06 01:06:11;;;;;;;13.00;8.80;;;23.80;99.90;;;;;;5032157;28;20099;-75
2022/09/06 01:08:52;;;;;;;11.05;7.72;;;23.80;99.90;;;;;;5031340;28;20091;-73
2022/09/06 01:11:23;;;;;;;12.68;8.35;;;23.90;99.90;;;;;;5014931;28;20079;-74
2022/09/06 01:14:15;;;;;;;11.65;8.27;;;23.80;99.90;;;;;;5030625;28;20091;-74
2022/09/06 01:17:14;;;;;;;12.02;7.80;;;23.80;99.90;;;;;;5030844;28;20380;-73
2022/09/06 01:20:14;;;;;;;12.82;8.02;;;23.80;99.90;;;;;;5020495;28;20500;-73
2022/09/06 01:23:08;;;;;;;13.98;8.75;;;23.70;99.90;;;;;;4998663;28;20140;-72
2022/09/06 01:26:24;;;;;;;13.80;9.68;;;23.70;99.90;;;;;;5014442;28;20511;-72
2022/09/06 01:28:52;;;;;;;13.65;9.32;;;23.70;99.90;;;;;;4993400;28;20052;-74
2022/09/06 01:31:36;;;;;;;11.00;7.90;;;23.60;99.90;;;;;;5014235;28;20427;-74
2022/09/06 01:34:07;;;;;;;13.82;7.82;;;23.60;99.90;;;;;;5030623;28;20052;-72
2022/09/06 01:37:01;;;;;;;15.60;8.57;;;23.60;99.90;;;;;;5031628;28;20530;-73
2022/09/06 01:39:39;;;;;;;12.13;8.57;;;23.60;99.90;;;;;;5026519;28;20045;-73
2022/09/06 01:42:09;;;;;;;12.75;9.23;;;23.60;99.90;;;;;;5014295;28;20124;-74
2022/09/06 01:44:39;;;;;;;14.55;8.10;;;23.50;99.90;;;;;;5030566;28;20055;-73
2022/09/06 01:47:07;;;;;;;14.48;8.75;;;23.50;99.90;;;;;;5030618;28;20041;-73
2022/09/06 01:49:43;;;;;;;15.18;8.65;;;23.50;99.90;;;;;;5030333;28;20050;-74
2022/09/06 01:52:52;;;;;;;10.50;7.45;;;23.50;99.90;;;;;;5030658;28;20049;-78
2022/09/06 01:55:25;;;;;;;10.65;6.88;;;23.50;99.90;;;;;;5021757;28;20053;-73
2022/09/06 01:58:08;;;;;;;9.90;7.72;;;23.50;99.90;;;;;;5013485;28;20061;-74
2022/09/06 02:00:47;;;;;;;10.88;7.07;;;23.50;99.90;;;;;;5030697;28;20058;-75
2022/09/06 02:03:34;;;;;;;13.23;7.97;;;23.60;99.90;;;;;;5030650;28;20132;-74
2022/09/06 02:06:13;;;;;;;11.30;6.65;;;23.60;99.90;;;;;;5015221;28;20053;-72
2022/09/06 02:08:57;;;;;;;12.13;7.22;;;23.60;99.90;;;;;;5014051;28;20045;-74
2022/09/06 02:11:28;;;;;;;9.85;6.43;;;23.60;99.90;;;;;;5030199;28;20384;-77
2022/09/06 02:14:03;;;;;;;9.68;6.60;;;23.60;99.90;;;;;;5031114;28;20041;-74
2022/09/06 02:16:34;;;;;;;9.98;7.47;;;23.60;99.90;;;;;;5013793;28;20046;-74
2022/09/06 02:19:05;;;;;;;11.05;7.35;;;23.60;99.90;;;;;;5031399;28;20053;-74
2022/09/06 02:21:39;;;;;;;10.45;6.88;;;23.60;99.90;;;;;;4997637;28;20082;-73
2022/09/06 02:24:11;;;;;;;9.95;7.07;;;23.60;99.90;;;;;;5013596;28;20128;-74
2022/09/06 02:26:42;;;;;;;9.73;6.38;;;23.60;99.90;;;;;;5029693;28;20152;-72
2022/09/06 02:29:10;;;;;;;10.60;6.93;;;23.60;99.90;;;;;;5013581;28;20067;-74
2022/09/06 02:31:58;;;;;;;10.20;6.47;;;23.60;99.90;;;;;;5029870;28;20525;-73
2022/09/06 02:34:25;;;;;;;9.30;6.43;;;23.60;99.90;;;;;;5030656;28;20136;-74
2022/09/06 02:36:54;;;;;;;9.63;6.97;;;23.60;99.90;;;;;;5029852;28;20050;-74
2022/09/06 02:39:21;;;;;;;10.20;6.82;;;23.60;99.90;;;;;;5013502;28;20127;-73
2022/09/06 02:41:49;;;;;;;8.40;6.03;;;23.60;99.90;;;;;;5013408;28;20131;-74
2022/09/06 02:44:17;;;;;;;12.13;8.00;;;23.60;99.90;;;;;;5030051;28;20059;-73
2022/09/06 02:46:45;;;;;;;11.23;6.78;;;23.60;99.90;;;;;;5029629;28;20042;-73
2022/09/06 02:49:12;;;;;;;10.10;6.88;;;23.50;99.90;;;;;;5030734;28;20492;-73
2022/09/06 02:51:40;;;;;;;8.45;6.15;;;23.50;99.90;;;;;;5029509;28;20049;-80
2022/09/06 02:54:07;;;;;;;9.82;6.13;;;23.50;99.90;;;;;;5029465;28;20466;-73
2022/09/06 02:56:35;;;;;;;9.75;6.50;;;23.50;99.90;;;;;;5029761;28;20461;-73
2022/09/06 02:59:04;;;;;;;10.07;7.53;;;23.50;99.90;;;;;;5029693;28;20068;-73
2022/09/06 03:01:31;;;;;;;13.10;7.10;;;23.50;99.90;;;;;;5043705;28;20053;-74
2022/09/06 03:03:59;;;;;;;14.45;6.25;;;23.50;99.90;;;;;;5030190;28;20847;-73
2022/09/06 03:06:27;;;;;;;9.48;6.65;;;23.50;99.90;;;;;;5029142;28;20088;-73
2022/09/06 03:08:54;;;;;;;8.63;6.85;;;23.50;99.90;;;;;;5013435;28;20049;-74
2022/09/06 03:11:22;;;;;;;10.75;6.47;;;23.50;99.90;;;;;;5013193;28;20045;-73
2022/09/06 03:13:49;;;;;;;9.20;6.70;;;23.50;99.90;;;;;;5015939;28;20099;-73
2022/09/06 03:16:18;;;;;;;12.50;7.30;;;23.50;99.90;;;;;;5033480;28;20052;-73
2022/09/06 03:18:46;;;;;;;11.13;6.70;;;23.40;99.90;;;;;;5034552;28;20073;-75
2022/09/06 03:21:14;;;;;;;9.60;7.25;;;23.40;99.90;;;;;;5016955;28;20107;-74
2022/09/06 03:23:41;;;;;;;9.95;7.00;;;23.50;99.90;;;;;;5034429;28;20061;-73
2022/09/06 03:26:09;;;;;;;9.40;6.75;;;23.40;99.90;;;;;;5034457;28;20133;-73
2022/09/06 03:28:37;;;;;;;10.20;6.40;;;23.40;99.90;;;;;;5033085;28;20136;-73
2022/09/06 03:31:05;;;;;;;10.77;6.88;;;23.30;99.90;;;;;;5033446;28;20055;-74
2022/09/06 03:33:32;;;;;;;12.20;6.47;;;23.30;99.90;;;;;;5033484;28;20041;-73
2022/09/06 03:36:01;;;;;;;10.15;5.72;;;23.30;99.90;;;;;;5033871;28;20077;-72
2022/09/06 03:38:29;;;;;;;10.30;6.15;;;23.30;99.90;;;;;;5016562;28;20049;-73
2022/09/06 03:40:57;;;;;;;8.88;6.53;;;23.30;99.90;;;;;;5032733;28;20041;-74
2022/09/06 03:43:26;;;;;;;8.90;5.47;;;23.30;99.90;;;;;;5033070;28;20077;-73
2022/09/06 03:45:56;;;;;;;9.77;6.82;;;23.30;99.90;;;;;;5032941;28;20041;-73
2022/09/06 03:48:28;;;;;;;9.00;5.93;;;23.30;99.90;;;;;;5033169;28;20057;-73
2022/09/06 03:50:57;;;;;;;8.35;6.25;;;23.30;99.90;;;;;;5034271;28;20037;-73
2022/09/06 03:53:27;;;;;;;9.23;5.80;;;23.30;99.90;;;;;;5033465;28;20057;-74
2022/09/06 03:55:56;;;;;;;9.40;6.10;;;23.30;99.90;;;;;;5032548;28;20054;-74
2022/09/06 03:58:29;;;;;;;9.85;6.38;;;23.20;99.90;;;;;;5033207;28;20081;-73
2022/09/06 04:01:02;;;;;;;10.95;6.55;;;23.20;99.90;;;;;;5032430;28;20049;-73
2022/09/06 04:03:30;;;;;;;9.95;6.82;;;23.20;99.90;;;;;;5016468;28;20045;-76
2022/09/06 04:05:58;;;;;;;10.30;6.68;;;23.20;99.90;;;;;;5032348;28;20431;-76
2022/09/06 04:08:28;;;;;;;9.75;6.18;;;23.10;99.90;;;;;;5032689;28;20484;-73
2022/09/06 04:10:58;;;;;;;18.60;6.60;;;23.10;99.90;;;;;;5016667;28;20065;-73
2022/09/06 04:13:27;;;;;;;10.52;6.28;;;23.10;99.90;;;;;;5016162;28;20415;-74
2022/09/06 04:15:54;;;;;;;11.57;7.85;;;23.10;99.90;;;;;;5015798;28;20049;-73
2022/09/06 04:18:22;;;;;;;12.07;7.03;;;23.00;99.90;;;;;;5032541;28;20045;-74
2022/09/06 04:20:54;;;;;;;10.57;6.03;;;23.00;99.90;;;;;;5027684;28;20446;-75
2022/09/06 04:23:24;;;;;;;11.18;7.18;;;23.00;99.90;;;;;;5061849;28;20499;-74
2022/09/06 04:25:54;;;;;;;9.27;7.00;;;23.00;99.90;;;;;;5057074;28;20041;-75
2022/09/06 04:28:23;;;;;;;8.85;7.05;;;23.00;99.90;;;;;;5058837;28;20048;-74
2022/09/06 04:31:00;;;;;;;10.48;7.57;;;23.00;99.90;;;;;;5048043;28;20052;-75
2022/09/06 04:33:32;;;;;;;12.55;6.53;;;23.00;99.90;;;;;;5040633;28;20072;-75
2022/09/06 04:36:01;;;;;;;10.65;6.78;;;23.00;99.90;;;;;;5034791;28;20932;-75
2022/09/06 04:38:33;;;;;;;9.80;7.32;;;23.10;99.90;;;;;;5070746;28;20049;-74
2022/09/06 04:41:02;;;;;;;10.85;7.28;;;23.10;99.90;;;;;;5033702;28;20054;-75
2022/09/06 04:43:30;;;;;;;10.07;7.32;;;23.10;99.90;;;;;;5031026;28;20140;-73
2022/09/06 04:46:23;;;;;;;8.70;6.13;;;23.20;99.90;;;;;;5031553;28;20045;-73
2022/09/06 04:48:52;;;;;;;9.20;6.22;;;23.20;99.90;;;;;;5030834;28;20049;-73
2022/09/06 04:51:21;;;;;;;12.20;7.43;;;23.30;99.90;;;;;;5031889;28;20042;-73
2022/09/06 04:53:49;;;;;;;10.00;6.60;;;23.40;99.90;;;;;;5014932;28;20065;-73
2022/09/06 04:56:24;;;;;;;16.55;7.45;;;23.50;99.90;;;;;;5031650;28;20476;-73
2022/09/06 04:58:54;;;;;;;9.95;7.10;;;23.60;99.90;;;;;;5015943;28;20054;-72
2022/09/06 05:01:22;;;;;;;11.05;8.40;;;23.70;99.90;;;;;;5032102;28;20044;-73
2022/09/06 05:03:49;;;;;;;10.60;6.65;;;23.80;99.90;;;;;;5032069;28;20484;-72
2022/09/06 05:06:22;;;;;;;8.48;6.20;;;23.90;99.90;;;;;;5031892;28;20042;-73
2022/09/06 05:08:49;;;;;;;8.68;6.15;;;24.00;99.90;;;;;;5015496;28;20099;-73
2022/09/06 05:11:17;;;;;;;9.52;6.70;;;24.20;99.90;;;;;;5032719;28;20046;-76
2022/09/06 05:13:46;;;;;;;10.88;6.85;;;24.30;99.90;;;;;;5031317;28;20124;-73
2022/09/06 05:16:14;;;;;;;10.93;7.57;;;24.40;99.90;;;;;;5031148;28;20048;-73
2022/09/06 05:18:41;;;;;;;9.75;6.32;;;24.50;99.90;;;;;;5031322;28;20037;-73
2022/09/06 05:21:09;;;;;;;8.23;5.82;;;24.70;99.90;;;;;;5015137;28;20084;-75
2022/09/06 05:23:37;;;;;;;9.38;6.68;;;24.80;99.90;;;;;;5031444;28;20103;-73
2022/09/06 05:26:05;;;;;;;9.57;6.32;;;24.90;99.90;;;;;;5032272;28;20124;-75
2022/09/06 05:28:33;;;;;;;9.23;6.15;;;25.10;99.90;;;;;;5030931;28;20499;-71
2022/09/06 05:31:09;;;;;;;8.02;5.70;;;25.30;99.90;;;;;;5031045;28;20065;-77
2022/09/06 05:33:37;;;;;;;11.73;7.10;;;25.50;99.90;;;;;;4998866;28;20115;-73
2022/09/06 05:36:05;;;;;;;7.95;5.30;;;25.60;99.90;;;;;;5031449;28;20042;-73
2022/09/06 05:38:33;;;;;;;8.60;5.22;;;25.80;99.90;;;;;;5031850;28;20057;-74
2022/09/06 05:41:01;;;;;;;11.13;5.68;;;25.90;99.90;;;;;;5031069;28;20045;-74
2022/09/06 05:43:28;;;;;;;7.28;5.00;;;26.10;99.90;;;;;;5031118;28;20396;-74
2022/09/06 05:45:56;;;;;;;8.02;5.43;;;26.20;99.90;;;;;;5030368;28;20060;-74
2022/09/06 05:48:24;;;;;;;9.80;5.80;;;26.30;99.90;;;;;;5030533;28;20041;-77
2022/09/06 05:51:00;;;;;;;8.18;6.05;;;26.50;99.90;;;;;;5037346;28;20080;-73
2022/09/06 05:53:36;;;;;;;11.98;5.60;;;26.60;99.90;;;;;;5034112;28;20072;-73
2022/09/06 05:56:05;;;;;;;6.75;5.20;;;26.70;99.90;;;;;;5017391;28;20143;-77
2022/09/06 05:58:33;;;;;;;8.23;5.20;;;26.90;99.90;;;;;;5033698;28;20045;-73
2022/09/06 06:01:16;;;;;;;10.50;6.80;;;27.00;99.90;;;;;;5034018;28;20051;-73
2022/09/06 06:04:10;;;;;;;9.07;5.40;;;27.10;99.90;;;;;;5033269;28;20463;-74
2022/09/06 06:06:37;;;;;;;7.88;4.70;;;27.30;99.90;;;;;;5048300;28;20114;-73
2022/09/06 06:09:05;;;;;;;7.45;5.00;;;27.40;99.90;;;;;;5033446;28;20045;-71
2022/09/06 06:11:32;;;;;;;8.38;5.20;;;27.50;99.90;;;;;;5050292;28;20041;-72
2022/09/06 06:14:02;;;;;;;7.53;4.70;;;27.70;99.90;;;;;;5016626;28;20044;-73
2022/09/06 06:16:30;;;;;;;8.43;5.65;;;27.70;99.90;;;;;;5049821;28;20046;-73
2022/09/06 06:18:58;;;;;;;11.00;4.85;;;27.90;99.90;;;;;;5049828;28;20056;-72
2022/09/06 06:21:30;;;;;;;6.30;4.93;;;28.00;99.90;;;;;;5050969;28;20400;-71
2022/09/06 06:24:01;;;;;;;7.97;4.55;;;28.10;99.90;;;;;;5049724;28;20519;-71
2022/09/06 06:26:31;;;;;;;6.53;4.82;;;28.30;99.90;;;;;;5049957;28;20144;-73
2022/09/06 06:29:01;;;;;;;7.88;4.95;;;28.30;99.90;;;;;;5033015;28;20495;-74
2022/09/06 06:31:30;;;;;;;6.63;4.60;;;28.40;99.90;;;;;;5049340;28;20045;-73
2022/09/06 06:33:58;;;;;;;7.07;4.78;;;28.50;99.90;;;;;;5016422;28;20049;-74
2022/09/06 06:36:29;;;;;;;7.82;4.75;;;28.60;99.90;;;;;;5049484;28;20045;-73
2022/09/06 06:38:57;;;;;;;5.78;3.47;;;28.70;99.90;;;;;;5032995;28;20049;-73
2022/09/06 06:41:28;;;;;;;8.15;4.32;;;28.70;99.90;;;;;;5050397;28;20053;-71
2022/09/06 06:44:04;;;;;;;9.38;4.57;;;28.80;99.90;;;;;;5048935;28;20391;-71
2022/09/06 06:46:34;;;;;;;6.85;4.25;;;29.00;99.90;;;;;;5049269;28;20040;-71
2022/09/06 06:49:01;;;;;;;7.20;5.40;;;29.10;99.90;;;;;;5032556;28;20411;-70
2022/09/06 06:51:32;;;;;;;6.80;5.07;;;29.20;99.90;;;;;;5032816;28;20503;-71
2022/09/06 06:53:59;;;;;;;6.95;3.88;;;29.20;99.90;;;;;;5012925;28;20053;-71
2022/09/06 06:56:35;;;;;;;7.28;4.75;;;29.30;99.90;;;;;;5030461;28;20052;-71
2022/09/06 06:59:05;;;;;;;6.63;4.70;;;29.40;99.90;;;;;;5029535;28;20049;-71
2022/09/06 07:01:34;;;;;;;4.72;3.67;;;29.50;99.90;;;;;;5029740;28;20056;-71
2022/09/06 07:04:03;;;;;;;6.38;4.25;;;29.50;99.90;;;;;;5029063;28;20065;-72
2022/09/06 07:06:44;;;;;;;5.25;3.47;;;29.60;99.90;;;;;;5029175;28;20103;-71
2022/09/06 07:09:32;;;;;;;9.75;4.78;;;29.70;99.90;;;;;;5012818;28;20049;-71
2022/09/06 07:12:19;;;;;;;6.20;3.38;;;29.90;99.90;;;;;;5029428;28;20041;-73
2022/09/06 07:14:47;;;;;;;6.07;3.25;;;30.00;99.90;;;;;;4996681;28;20049;-72
2022/09/06 07:17:14;;;;;;;6.55;4.32;;;30.10;99.90;;;;;;5029132;28;20128;-74
2022/09/06 07:19:42;;;;;;;4.97;3.00;;;30.20;99.90;;;;;;5045210;28;20088;-74
2022/09/06 07:22:29;;;;;;;5.72;3.20;;;30.40;99.90;;;;;;5031821;28;20042;-73
2022/09/06 07:24:57;;;;;;;6.57;3.97;;;30.50;99.90;;;;;;5045648;28;20063;-71
2022/09/06 07:27:25;;;;;;;3.97;3.42;;;30.60;99.50;;;;;;5030087;28;20038;-72
2022/09/06 07:30:13;;;;;;;6.38;3.65;;;30.60;98.80;;;;;;5029262;28;20045;-72
2022/09/06 07:32:40;;;;;;;6.78;3.55;;;30.60;97.80;;;;;;5029202;28;20436;-71
2022/09/06 07:35:08;;;;;;;4.78;3.28;;;30.60;97.60;;;;;;5029361;28;20061;-71
2022/09/06 07:37:36;;;;;;;7.93;3.40;;;30.70;98.10;;;;;;5012856;28;20136;-71
2022/09/06 07:40:04;;;;;;;6.93;3.22;;;30.70;98.10;;;;;;5012384;28;20067;-73
2022/09/06 07:42:31;;;;;;;4.38;3.20;;;30.70;97.60;;;;;;5018337;28;20079;-72
2022/09/06 07:45:04;;;;;;;6.63;3.67;;;30.80;97.20;;;;;;5032682;28;20049;-71
2022/09/06 07:47:32;;;;;;;5.47;3.28;;;30.90;97.10;;;;;;5032353;28;20103;-71
2022/09/06 07:50:20;;;;;;;4.80;3.72;;;31.00;97.10;;;;;;5032428;28;20502;-71
2022/09/06 07:53:08;;;;;;;8.18;4.13;;;31.10;96.60;;;;;;5035068;28;20118;-72
2022/09/06 07:55:36;;;;;;;7.03;3.67;;;31.20;96.40;;;;;;5050024;28;20059;-73
2022/09/06 07:58:04;;;;;;;8.50;5.20;;;31.20;96.10;;;;;;5032366;28;20060;-72
2022/09/06 08:00:32;;;;;;;7.57;4.47;;;31.20;95.60;;;;;;5019713;28;20102;-72
2022/09/06 08:02:59;;;;;;;7.50;3.90;;;31.20;95.70;;;;;;5052332;28;20047;-72
2022/09/06 08:05:27;;;;;;;8.27;4.28;;;31.30;95.40;;;;;;5053633;28;20080;-77
2022/09/06 08:08:14;;;;;;;5.70;3.72;;;31.40;95.10;;;;;;5036154;28;20040;-71
2022/09/06 08:11:02;;;;;;;6.65;3.92;;;31.40;94.50;;;;;;5052429;28;20040;-71
2022/09/06 08:13:30;;;;;;;7.97;4.50;;;31.40;94.20;;;;;;5052475;28;20057;-74
2022/09/06 08:15:59;;;;;;;5.40;4.25;;;31.40;93.60;;;;;;5035713;28;20061;-73
2022/09/06 08:18:27;;;;;;;6.25;4.70;;;31.40;93.70;;;;;;5036250;28;20415;-72
2022/09/06 08:20:54;;;;;;;6.70;4.57;;;31.30;93.40;;;;;;5053372;28;20499;-73
2022/09/06 08:23:22;;;;;;;8.18;4.75;;;31.40;93.70;;;;;;5052176;28;20041;-72
2022/09/06 08:25:59;;;;;;;10.57;4.95;;;31.40;93.70;;;;;;5051967;28;20045;-70
2022/09/06 08:28:26;;;;;;;7.40;4.47;;;31.50;93.50;;;;;;5035699;28;20138;-73
2022/09/06 08:31:03;;;;;;;9.77;4.55;;;31.50;93.50;;;;;;5051910;28;20091;-71
2022/09/06 08:33:31;;;;;;;6.25;4.32;;;31.60;93.40;;;;;;5044063;28;20055;-70
2022/09/06 08:35:59;;;;;;;7.10;4.55;;;31.60;93.10;;;;;;5032802;28;20053;-71
2022/09/06 08:38:27;;;;;;;7.10;4.70;;;31.70;93.10;;;;;;5015370;28;20057;-71
2022/09/06 08:41:08;;;;;;;7.00;4.90;;;31.70;93.20;;;;;;5032949;28;20470;-74
2022/09/06 08:43:38;;;;;;;6.40;4.13;;;31.80;93.50;;;;;;5031700;28;20041;-72
2022/09/06 08:46:08;;;;;;;8.82;4.55;;;31.80;93.50;;;;;;5031862;28;20049;-72
2022/09/06 08:48:38;;;;;;;7.25;4.68;;;31.80;93.20;;;;;;5032799;28;20044;-72
2022/09/06 08:51:21;;;;;;;9.25;4.57;;;31.80;93.00;;;;;;5015472;28;20140;-72
2022/09/06 08:53:48;;;;;;;7.13;4.78;;;32.00;92.70;;;;;;5031529;28;20415;-75
2022/09/06 08:56:23;;;;;;;5.70;3.67;;;32.00;92.30;;;;;;5032944;28;20423;-72
2022/09/06 08:59:13;;;;;;;5.33;4.30;;;31.90;91.60;;;;;;5031620;28;20056;-72
2022/09/06 09:01:52;;;;;;;6.40;3.65;;;31.70;91.70;;;;;;5032323;28;20041;-79
2022/09/06 09:04:23;;;;;;;7.80;4.82;;;31.80;92.00;;;;;;5031851;28;20107;-72
2022/09/06 09:06:58;;;;;;;8.20;5.05;;;31.80;92.30;;;;;;5031491;28;20057;-74
2022/09/06 09:09:31;;;;;;;5.72;4.35;;;31.90;92.70;;;;;;5031527;28;20136;-72
2022/09/06 09:12:00;;;;;;;6.82;4.47;;;32.00;92.40;;;;;;5014321;28;20072;-71
2022/09/06 09:14:34;;;;;;;7.32;4.80;;;32.00;92.10;;;;;;5015200;28;20042;-71
2022/09/06 09:17:19;;;;;;;8.80;5.10;;;32.00;92.10;;;;;;5031472;28;20132;-74
2022/09/06 09:19:47;;;;;;;6.03;4.13;;;32.00;91.20;;;;;;5033259;28;20389;-71
2022/09/06 09:22:18;;;;;;;7.20;5.03;;;32.10;91.50;;;;;;5034477;28;20056;-75
2022/09/06 09:24:47;;;;;;;6.95;4.65;;;32.10;91.10;;;;;;5051016;28;20128;-72
2022/09/06 09:27:24;;;;;;;6.50;4.70;;;32.10;91.30;;;;;;5034638;28;20052;-75
2022/09/06 09:29:55;;;;;;;6.55;4.28;;;32.00;91.50;;;;;;5050712;28;20041;-72
2022/09/06 09:32:44;;;;;;;5.57;4.28;;;32.00;91.00;;;;;;5050850;28;20157;-72
2022/09/06 09:35:36;;;;;;;6.63;4.88;;;31.80;90.60;;;;;;5050789;28;20045;-73
2022/09/06 09:38:19;;;;;;;9.00;4.50;;;31.80;90.80;;;;;;5033495;28;20065;-73
2022/09/06 09:40:51;;;;;;;7.00;4.47;;;31.70;92.20;;;;;;5050377;28;20496;-77
2022/09/06 09:43:25;;;;;;;7.82;5.25;;;31.70;92.70;;;;;;5034196;28;20072;-73
2022/09/06 09:46:10;;;;;;;7.70;4.80;;;31.60;92.80;;;;;;5050231;28;20106;-73
2022/09/06 09:48:42;;;;;;;7.03;4.93;;;31.60;93.60;;;;;;5033834;28;20411;-74
2022/09/06 09:51:24;;;;;;;8.52;5.47;;;31.50;93.60;;;;;;5033932;28;20057;-73
2022/09/06 09:53:55;;;;;;;10.90;5.25;;;31.50;93.20;;;;;;5050175;28;20547;-72
2022/09/06 09:56:37;;;;;;;7.10;4.85;;;31.50;92.80;;;;;;5033619;28;20060;-73
2022/09/06 09:59:26;;;;;;;7.00;4.57;;;31.70;92.70;;;;;;5034070;28;20032;-73
2022/09/06 10:01:58;;;;;;;7.10;5.00;;;31.60;92.70;;;;;;5049845;28;20045;-73
2022/09/06 10:04:37;;;;;;;8.10;4.93;;;31.70;92.70;;;;;;5051348;28;20435;-77
2022/09/06 10:07:08;;;;;;;8.23;5.05;;;31.40;92.60;;;;;;5033769;28;20053;-74
2022/09/06 10:09:39;;;;;;;8.05;5.20;;;31.30;92.20;;;;;;5050935;28;20036;-73
2022/09/06 10:12:07;;;;;;;7.65;4.93;;;31.30;92.80;;;;;;5049847;28;20059;-72
2022/09/06 10:14:46;;;;;;;8.98;4.88;;;31.30;92.70;;;;;;5050809;28;20033;-73
2022/09/06 10:17:28;;;;;;;6.82;5.22;;;31.20;92.80;;;;;;5050116;28;20438;-74
2022/09/06 10:19:58;;;;;;;7.75;5.45;;;31.30;92.80;;;;;;5047255;28;20068;-73
2022/09/06 10:22:34;;;;;;;6.82;4.75;;;31.30;92.80;;;;;;5049591;28;20400;-73
2022/09/06 10:25:09;;;;;;;6.50;5.28;;;31.20;92.60;;;;;;5016969;28;20045;-72
2022/09/06 10:27:50;;;;;;;8.77;4.15;;;31.30;92.70;;;;;;5050590;28;20045;-73
2022/09/06 10:30:44;;;;;;;5.63;4.35;;;31.40;92.70;;;;;;5035521;28;20167;-71
2022/09/06 10:33:36;;;;;;;6.60;4.70;;;31.40;92.90;;;;;;5049676;28;20041;-71
2022/09/06 10:36:05;;;;;;;7.22;4.80;;;31.40;93.10;;;;;;5016240;28;20061;-72
2022/09/06 10:38:47;;;;;;;8.15;4.55;;;31.50;92.60;;;;;;5050328;28;20119;-74
2022/09/06 10:41:45;;;;;;;5.45;4.25;;;31.60;92.00;;;;;;5032812;28;20041;-73
2022/09/06 10:44:34;;;;;;;5.63;3.88;;;31.60;92.00;;;;;;5049213;28;20433;-72
2022/09/06 10:47:11;;;;;;;7.38;4.57;;;31.70;92.30;;;;;;5049406;28;20150;-72
2022/09/06 10:49:47;;;;;;;6.70;4.38;;;31.60;92.30;;;;;;5049140;28;20045;-75
2022/09/06 10:52:24;;;;;;;8.57;4.50;;;31.50;92.20;;;;;;5016371;28;20049;-72
2022/09/06 10:54:56;;;;;;;9.52;4.45;;;31.40;92.50;;;;;;5016114;28;20410;-73
2022/09/06 10:57:31;;;;;;;6.50;4.13;;;31.40;92.70;;;;;;5032772;28;20084;-72
2022/09/06 11:00:19;;;;;;;5.50;3.80;;;31.40;92.80;;;;;;5050259;28;20462;-74
2022/09/06 11:03:08;;;;;;;8.95;5.10;;;31.50;92.40;;;;;;5049170;28;20041;-73
2022/09/06 11:06:03;;;;;;;9.10;5.22;;;31.40;92.80;;;;;;5046679;28;20045;-72
2022/09/06 11:09:04;;;;;;;8.82;4.45;;;31.50;92.80;;;;;;5030303;28;20049;-73
2022/09/06 11:11:39;;;;;;;6.40;4.43;;;31.50;92.20;;;;;;5012734;28;20160;-74
2022/09/06 11:14:11;;;;;;;6.55;4.43;;;31.50;92.70;;;;;;5029202;28;20049;-72
2022/09/06 11:16:52;;;;;;;8.90;4.30;;;31.50;92.80;;;;;;5029304;28;20457;-72
2022/09/06 11:19:30;;;;;;;6.47;4.43;;;31.50;92.50;;;;;;5030156;28;20092;-74
2022/09/06 11:22:07;;;;;;;9.05;4.00;;;31.50;92.60;;;;;;5028726;28;20045;-72
2022/09/06 11:24:57;;;;;;;6.55;4.03;;;31.50;92.60;;;;;;5029177;28;20142;-72
2022/09/06 11:27:31;;;;;;;8.43;5.07;;;31.30;92.80;;;;;;5012428;28;20103;-76
2022/09/06 11:30:01;;;;;;;8.70;4.82;;;31.30;92.80;;;;;;5028383;28;20037;-72
2022/09/06 11:32:38;;;;;;;6.65;4.63;;;31.30;93.00;;;;;;4996695;28;20041;-72
2022/09/06 11:35:20;;;;;;;5.97;3.95;;;31.20;92.60;;;;;;5016293;28;20045;-76
2022/09/06 11:38:03;;;;;;;6.30;4.45;;;31.20;92.70;;;;;;5032312;28;20523;-72
2022/09/06 11:41:00;;;;;;;7.15;4.60;;;31.10;93.40;;;;;;5016196;28;20064;-72
2022/09/06 11:43:49;;;;;;;5.55;4.00;;;31.00;93.30;;;;;;5016556;28;20053;-76
2022/09/06 11:46:32;;;;;;;7.07;4.43;;;31.00;93.20;;;;;;5016499;28;20061;-72
2022/09/06 11:49:09;;;;;;;6.00;4.63;;;31.00;93.40;;;;;;5033636;28;20053;-72
2022/09/06 11:51:37;;;;;;;4.78;3.83;;;31.00;93.50;;;;;;5032828;28;20049;-73
2022/09/06 11:54:14;;;;;;;7.88;4.82;;;31.00;93.60;;;;;;5047393;28;20103;-72
2022/09/06 11:57:16;;;;;;;7.05;4.13;;;30.80;93.90;;;;;;5033929;28;20063;-72
2022/09/06 11:59:46;;;;;;;5.88;3.92;;;30.70;93.80;;;;;;5004939;28;20061;-73
2022/09/06 12:02:36;;;;;;;5.82;3.97;;;30.50;93.60;;;;;;5016132;28;20053;-72
2022/09/06 12:05:06;;;;;;;5.60;3.80;;;30.50;93.80;;;;;;5032658;28;20128;-73
2022/09/06 12:07:36;;;;;;;8.20;4.75;;;30.50;93.80;;;;;;5016135;28;20148;-73
2022/09/06 12:10:54;;;;;;;5.38;4.35;;;30.50;93.60;;;;;;4999375;28;20049;-75
2022/09/06 12:13:45;;;;;;;5.40;3.78;;;30.40;93.70;;;;;;5011483;28;20085;-76
2022/09/06 12:16:15;;;;;;;8.23;4.57;;;30.30;93.90;;;;;;4995021;28;20551;-75
2022/09/06 12:18:46;;;;;;;7.18;4.10;;;30.30;94.10;;;;;;5022199;28;20073;-76
2022/09/06 12:21:41;;;;;;;5.82;4.13;;;30.30;94.50;;;;;;5032106;28;20806;-72
2022/09/06 12:24:32;;;;;;;7.43;3.90;;;30.20;94.50;;;;;;5015828;28;20053;-72
2022/09/06 12:27:34;;;;;;;6.88;3.80;;;30.20;94.70;;;;;;5032263;28;20041;-72
2022/09/06 12:30:11;;;;;;;6.85;4.43;;;30.00;94.60;;;;;;5015510;28;20041;-73
2022/09/06 12:32:44;;;;;;;7.65;4.50;;;30.10;94.70;;;;;;5031999;28;20045;-73
2022/09/06 12:35:19;;;;;;;4.80;3.72;;;30.00;94.80;;;;;;5032110;28;20187;-72
2022/09/06 12:38:17;;;;;;;7.43;5.10;;;30.00;95.00;;;;;;5015027;28;20500;-73
2022/09/06 12:40:48;;;;;;;7.88;4.10;;;30.00;94.40;;;;;;5015323;28;20037;-73
2022/09/06 12:43:17;;;;;;;7.22;4.97;;;30.00;93.90;;;;;;5031895;28;20059;-74
2022/09/06 12:45:51;;;;;;;5.90;3.70;;;30.00;94.60;;;;;;5030384;28;20045;-72
2022/09/06 12:48:34;;;;;;;7.38;4.97;;;30.10;94.90;;;;;;4999420;28;20061;-73
2022/09/06 12:51:05;;;;;;;7.38;4.55;;;30.10;94.70;;;;;;5015530;28;20064;-71
2022/09/06 12:53:33;;;;;;;6.63;4.30;;;30.10;94.80;;;;;;5025719;28;20091;-72
2022/09/06 12:56:11;;;;;;;6.68;4.32;;;30.10;94.70;;;;;;5014774;28;20042;-72
2022/09/06 12:58:39;;;;;;;5.40;3.78;;;30.00;94.60;;;;;;5031456;28;20051;-74
2022/09/06 13:01:33;;;;;;;9.43;4.78;;;30.00;94.90;;;;;;5015052;28;20140;-72
2022/09/06 13:04:15;;;;;;;7.75;4.18;;;29.90;94.80;;;;;;5031011;28;20041;-74
2022/09/06 13:06:44;;;;;;;7.38;4.60;;;29.80;94.40;;;;;;5031123;28;20132;-73
2022/09/06 13:09:17;;;;;;;5.50;3.90;;;29.80;94.80;;;;;;5030991;28;20563;-72
2022/09/06 13:11:51;;;;;;;6.13;3.80;;;29.90;94.70;;;;;;5031231;28;20507;-73
2022/09/06 13:14:26;;;;;;;7.32;4.25;;;29.90;95.10;;;;;;5015349;28;20124;-72
2022/09/06 13:16:56;;;;;;;5.95;4.43;;;29.80;95.60;;;;;;4998653;28;20053;-74
2022/09/06 13:19:40;;;;;;;7.80;4.13;;;29.80;94.70;;;;;;5031240;28;20047;-73